createdAt,value
2018-03-16T00:04:33.316Z,57.47
2018-03-16T00:09:24.950Z,60.87
2018-03-16T00:14:15.852Z,64.10
2018-03-16T00:19:06.748Z,56.33
2018-03-16T00:23:58.387Z,66.67
2018-03-16T00:28:50.020Z,55.10
2018-03-16T00:33:40.928Z,58.37
2018-03-16T00:38:31.848Z,52.37
2018-03-16T00:43:22.756Z,49.97
2018-03-16T00:48:15.164Z,46.97
2018-03-16T00:53:06.072Z,37.13
2018-03-16T00:57:57.700Z,45.43
2018-03-16T01:02:48.609Z,40.87
2018-03-16T01:07:39.507Z,49.83
2018-03-16T01:12:30.407Z,47.50
2018-03-16T01:17:21.312Z,47.00
2018-03-16T01:22:12.208Z,47.77
2018-03-16T01:27:03.848Z,52.07
2018-03-16T01:31:54.752Z,60.67
2018-03-16T01:36:45.656Z,34.63
2018-03-16T01:41:37.291Z,48.30
2018-03-16T01:46:28.191Z,35.27
2018-03-16T01:51:19.079Z,41.10
2018-03-16T01:56:10.728Z,60.17
2018-03-16T02:01:01.636Z,40.70
2018-03-16T02:05:52.536Z,46.53
2018-03-16T02:10:44.174Z,33.70
2018-03-16T02:15:35.084Z,44.23
2018-03-16T02:20:25.996Z,38.80
2018-03-16T02:25:16.899Z,44.67
2018-03-16T02:30:08.213Z,41.83
2018-03-16T02:34:59.140Z,40.57
2018-03-16T02:39:50.034Z,35.40
2018-03-16T02:44:40.936Z,30.67
2018-03-16T02:49:31.872Z,35.67
2018-03-16T02:54:22.761Z,29.70
2018-03-16T02:59:13.753Z,28.80
2018-03-16T03:04:04.542Z,32.07
2018-03-16T03:08:55.436Z,28.70
2018-03-16T03:13:46.331Z,26.67
2018-03-16T03:18:37.230Z,21.77
2018-03-16T03:23:28.109Z,26.67
2018-03-16T03:28:19.002Z,36.63
2018-03-16T03:33:09.882Z,19.23
2018-03-16T03:38:00.769Z,24.47
2018-03-16T03:42:52.390Z,29.23
2018-03-16T03:47:43.274Z,21.77
2018-03-16T03:52:34.154Z,30.90
2018-03-16T03:57:25.046Z,26.50
2018-03-16T04:02:15.944Z,32.00
2018-03-16T04:07:06.843Z,32.27
2018-03-16T04:11:57.734Z,31.83
2018-03-16T04:16:48.652Z,27.40
2018-03-16T04:21:39.542Z,31.97
2018-03-16T04:26:31.189Z,19.23
2018-03-16T04:31:22.082Z,26.70
2018-03-16T04:36:12.994Z,25.63
2018-03-16T04:41:03.888Z,27.40
2018-03-16T04:45:54.774Z,31.00
2018-03-16T04:50:45.693Z,32.57
2018-03-16T04:55:36.584Z,22.97
2018-03-16T05:00:27.469Z,28.87
2018-03-16T05:05:18.363Z,29.63
2018-03-16T05:10:09.267Z,36.90
2018-03-16T05:15:00.158Z,36.50
2018-03-16T05:19:51.116Z,32.90
2018-03-16T05:24:43.722Z,27.07
2018-03-16T05:29:35.410Z,27.60
2018-03-16T05:34:26.366Z,21.93
2018-03-16T05:39:17.264Z,28.67
2018-03-16T05:44:08.158Z,27.43
2018-03-16T05:48:59.041Z,22.80
2018-03-16T05:53:49.931Z,22.50
2018-03-16T05:58:40.822Z,26.80
2018-03-16T06:03:31.727Z,17.73
2018-03-16T06:08:22.755Z,27.53
2018-03-16T06:13:14.386Z,31.90
2018-03-16T06:18:05.262Z,28.67
2018-03-16T06:22:56.154Z,29.10
2018-03-16T06:27:47.039Z,24.03
2018-03-16T06:32:38.662Z,27.63
2018-03-16T06:37:29.580Z,23.63
2018-03-16T06:42:20.462Z,22.23
2018-03-16T06:47:11.392Z,28.70
2018-03-16T06:52:03.013Z,15.27
2018-03-16T06:56:53.904Z,26.23
2018-03-16T07:01:44.790Z,19.47
2018-03-16T07:06:35.679Z,18.60
2018-03-16T07:11:27.315Z,19.40
2018-03-16T07:16:18.202Z,26.87
2018-03-16T07:21:09.085Z,15.30
2018-03-16T07:25:59.979Z,26.40
2018-03-16T07:30:50.924Z,12.77
2018-03-16T07:35:41.821Z,19.33
2018-03-16T07:40:33.445Z,14.13
2018-03-16T07:45:30.451Z,19.90
2018-03-16T07:50:22.083Z,14.53
2018-03-16T07:55:13.092Z,10.50
2018-03-16T08:00:04.107Z,16.73
2018-03-16T08:04:55.128Z,11.80
2018-03-16T08:09:46.038Z,11.83
2018-03-16T08:14:37.669Z,14.60
2018-03-16T08:19:28.571Z,19.23
2018-03-16T08:24:19.463Z,12.40
2018-03-16T08:29:11.492Z,8.90
2018-03-16T08:34:02.466Z,10.57
2018-03-16T08:38:53.395Z,16.90
2018-03-16T08:43:44.282Z,11.17
2018-03-16T08:48:35.186Z,17.00
2018-03-16T08:53:26.089Z,11.07
2018-03-16T08:58:16.974Z,10.50
2018-03-16T09:03:08.606Z,17.97
2018-03-16T09:07:59.501Z,11.83
2018-03-16T09:12:50.402Z,9.20
2018-03-16T09:17:41.291Z,9.63
2018-03-16T09:22:32.182Z,8.67
2018-03-16T09:27:23.079Z,9.97
2018-03-16T09:32:14.715Z,12.10
2018-03-16T09:37:06.362Z,11.87
2018-03-16T09:41:57.271Z,9.70
2018-03-16T09:46:48.150Z,10.43
2018-03-16T09:51:39.782Z,8.67
2018-03-16T09:56:30.671Z,8.43
2018-03-16T10:01:21.565Z,8.97
2018-03-16T10:06:12.463Z,9.50
2018-03-16T10:11:10.238Z,9.30
2018-03-16T10:16:01.171Z,9.50
2018-03-16T10:20:52.065Z,11.17
2018-03-16T10:25:43.014Z,10.53
2018-03-16T10:30:33.906Z,11.33
2018-03-16T10:35:25.544Z,9.57
2018-03-16T10:40:17.199Z,11.70
2018-03-16T10:45:08.093Z,10.83
2018-03-16T10:49:58.995Z,6.90
2018-03-16T10:54:49.890Z,8.73
2018-03-16T10:59:40.774Z,7.57
2018-03-16T11:04:31.666Z,8.87
2018-03-16T11:09:22.616Z,12.03
2018-03-16T11:14:13.459Z,10.00
2018-03-16T11:19:04.346Z,13.03
2018-03-16T11:23:55.988Z,19.43
2018-03-16T11:28:47.627Z,12.90
2018-03-16T11:33:38.514Z,8.33
2018-03-16T11:38:29.403Z,10.13
2018-03-16T11:43:20.303Z,8.77
2018-03-16T11:48:11.187Z,9.53
2018-03-16T11:53:02.831Z,10.33
2018-03-16T11:57:53.721Z,7.20
2018-03-16T12:02:44.615Z,5.70
2018-03-16T12:07:35.507Z,7.83
2018-03-16T12:12:26.438Z,9.50
2018-03-16T12:17:17.326Z,10.40
2018-03-16T12:22:08.219Z,11.00
2018-03-16T12:26:59.114Z,10.53
2018-03-16T12:31:50.392Z,15.30
2018-03-16T12:36:41.289Z,9.47
2018-03-16T12:41:32.174Z,12.43
2018-03-16T12:46:23.801Z,11.47
2018-03-16T12:51:14.690Z,11.27
2018-03-16T12:56:05.587Z,11.83
2018-03-16T13:00:57.241Z,16.93
2018-03-16T13:05:48.879Z,12.00
2018-03-16T13:10:39.770Z,15.17
2018-03-16T13:15:30.663Z,12.03
2018-03-16T13:20:21.567Z,18.03
2018-03-16T13:25:12.460Z,13.00
2018-03-16T13:30:04.111Z,14.03
2018-03-16T13:34:55.780Z,11.40
2018-03-16T13:39:46.683Z,12.40
2018-03-16T13:44:38.318Z,11.23
2018-03-16T13:49:29.235Z,15.93
2018-03-16T13:54:20.143Z,11.90
2018-03-16T13:59:11.043Z,12.50
2018-03-16T14:04:01.914Z,11.03
2018-03-16T14:08:52.814Z,13.67
2018-03-16T14:13:43.698Z,10.10
2018-03-16T14:18:34.601Z,14.20
2018-03-16T14:23:25.496Z,12.20
2018-03-16T14:28:16.400Z,8.50
2018-03-16T14:33:07.286Z,14.80
2018-03-16T14:37:58.170Z,13.43
2018-03-16T14:42:49.798Z,8.20
2018-03-16T14:47:40.696Z,6.87
2018-03-16T14:52:31.594Z,9.63
2018-03-16T14:57:23.231Z,16.13
2018-03-16T15:02:14.136Z,12.47
2018-03-16T15:07:05.056Z,7.20
2018-03-16T15:11:55.938Z,12.53
2018-03-16T15:16:46.847Z,10.57
2018-03-16T15:21:37.800Z,9.57
2018-03-16T15:26:28.674Z,12.63
2018-03-16T15:31:19.580Z,10.10
2018-03-16T15:36:11.224Z,9.17
2018-03-16T15:41:02.858Z,12.43
2018-03-16T15:45:53.742Z,12.00
2018-03-16T15:50:44.688Z,9.00
2018-03-16T15:55:35.560Z,11.37
2018-03-16T16:00:27.186Z,9.50
2018-03-16T16:05:25.029Z,9.60
2018-03-16T16:10:15.931Z,9.93
2018-03-16T16:15:06.903Z,6.60
2018-03-16T16:19:57.756Z,5.20
2018-03-16T16:24:48.656Z,9.77
2018-03-16T16:29:40.286Z,7.23
2018-03-16T16:34:31.927Z,10.73
2018-03-16T16:39:22.824Z,9.10
2018-03-16T16:44:28.709Z,6.50
2018-03-16T16:49:19.608Z,5.10
2018-03-16T16:54:11.244Z,9.70
2018-03-16T16:59:02.874Z,7.23
2018-03-16T17:03:54.508Z,6.53
2018-03-16T17:08:45.407Z,4.80
2018-03-16T17:13:36.328Z,8.53
2018-03-16T17:18:27.236Z,4.77
2018-03-16T17:23:18.140Z,7.60
2018-03-16T17:28:09.070Z,7.00
2018-03-16T17:33:00.045Z,4.67
2018-03-16T17:37:50.944Z,5.90
2018-03-16T17:42:56.874Z,6.03
2018-03-16T17:47:48.512Z,7.37
2018-03-16T17:52:39.494Z,6.80
2018-03-16T17:57:30.383Z,6.50
2018-03-16T18:02:22.076Z,9.37
2018-03-16T18:07:12.997Z,4.03
2018-03-16T18:12:03.889Z,5.10
2018-03-16T18:16:54.811Z,5.20
2018-03-16T18:21:45.723Z,5.10
2018-03-16T18:26:37.366Z,6.57
2018-03-16T18:31:28.256Z,5.27
2018-03-16T18:36:19.180Z,6.17
2018-03-16T18:41:10.076Z,8.67
2018-03-16T18:46:01.030Z,5.90
2018-03-16T18:50:51.914Z,7.00
2018-03-16T18:55:43.552Z,6.00
2018-03-16T19:00:34.438Z,7.53
2018-03-16T19:05:25.325Z,5.80
2018-03-16T19:10:16.957Z,5.97
2018-03-16T19:15:07.854Z,4.93
2018-03-16T19:19:58.743Z,4.47
2018-03-16T19:24:50.384Z,5.13
2018-03-16T19:29:42.570Z,3.93
2018-03-16T19:34:33.479Z,5.10
2018-03-16T19:39:25.116Z,4.80
2018-03-16T19:44:16.745Z,4.90
2018-03-16T19:49:07.641Z,4.90
2018-03-16T19:53:58.557Z,4.00
2018-03-16T19:58:49.450Z,4.10
2018-03-16T20:03:41.155Z,4.90
2018-03-16T20:08:32.066Z,4.63
2018-03-16T20:13:22.972Z,5.70
2018-03-16T20:18:13.855Z,4.13
2018-03-16T20:23:06.467Z,4.10
2018-03-16T20:27:57.442Z,4.37
2018-03-16T20:32:48.435Z,4.30
2018-03-16T20:37:39.360Z,4.13
2018-03-16T20:42:30.246Z,3.87
2018-03-16T20:47:21.936Z,5.00
2018-03-16T20:52:12.850Z,4.83
2018-03-16T20:57:03.787Z,4.13
2018-03-16T21:01:55.425Z,4.60
2018-03-16T21:06:46.381Z,4.40
2018-03-16T21:11:37.274Z,4.43
2018-03-16T21:16:28.203Z,3.93
2018-03-16T21:21:19.112Z,5.10
2018-03-16T21:26:09.998Z,5.60
2018-03-16T21:31:01.690Z,3.97
2018-03-16T21:35:52.587Z,4.47
2018-03-16T21:40:43.492Z,2.80
2018-03-16T21:45:35.122Z,3.83
2018-03-16T21:50:26.776Z,4.37
2018-03-16T21:55:17.779Z,3.83
2018-03-16T22:00:08.672Z,3.90
2018-03-16T22:04:59.571Z,4.00
2018-03-16T22:09:51.217Z,3.63
2018-03-16T22:14:42.194Z,4.00
2018-03-16T22:19:33.090Z,3.70
2018-03-16T22:24:23.991Z,3.37
2018-03-16T22:29:15.679Z,4.60
2018-03-16T22:34:06.575Z,3.10
2018-03-16T22:38:58.205Z,4.00
2018-03-16T22:43:49.879Z,3.43
2018-03-16T22:48:40.733Z,4.30
2018-03-16T22:53:31.634Z,4.20
2018-03-16T22:58:22.549Z,4.03
2018-03-16T23:03:13.442Z,4.43
2018-03-16T23:08:04.427Z,3.27
2018-03-16T23:12:55.335Z,4.13
2018-03-16T23:17:46.213Z,3.37
2018-03-16T23:22:37.108Z,3.53
2018-03-16T23:27:27.996Z,6.70
2018-03-16T23:32:18.929Z,3.17
2018-03-16T23:37:09.839Z,3.67
2018-03-16T23:42:01.484Z,5.00
2018-03-16T23:46:53.136Z,3.57
2018-03-16T23:51:44.776Z,3.43
2018-03-16T23:56:35.670Z,4.20
